Terminal Aerodrome Forecast
Issued by NWS

Home | Current Version | Previous Version | Graphics & Text | Print | Product List | Glossary On
Versions: 1 2 3 4 5 6 7 8 9 10 11 12 13 14 15 16 17
000
FTUS43 KGRB 202335
TAFRHI
TAF
KRHI 202335Z 2100/2124 19011G18KT P6SM SCT040 BKN120
     FM210600 19006KT 5SM BR SCT006 BKN250
      TEMPO 2107/2110 3SM BR BKN005
     FM211000 18006KT 3SM BR BKN004
     FM211300 22009G16KT P6SM VCSH BKN008
      TEMPO 2113/2116 3SM TSRA BR BKN006CB
     FM211700 23012G22KT P6SM BKN018 PROB30 2120/2124 2SM TSRA
      BKN018CB=

USA.gov is the U.S. government's official web portal to all federal, state and local government web resources and services.